createdAt,value
2022-11-02T00:01:13.608Z,18.40
2022-11-02T00:03:40.237Z,19.25
2022-11-02T00:06:06.890Z,18.08
2022-11-02T00:08:33.558Z,18.60
2022-11-02T00:11:00.140Z,18.13
2022-11-02T00:13:26.939Z,18.13
2022-11-02T00:15:53.749Z,17.83
2022-11-02T00:18:20.451Z,17.95
2022-11-02T00:20:47.344Z,18.08
2022-11-02T00:23:15.518Z,17.65
2022-11-02T00:25:45.666Z,18.50
2022-11-02T00:28:13.463Z,18.55
2022-11-02T00:30:40.551Z,19.08
2022-11-02T00:33:07.354Z,18.42
2022-11-02T00:35:35.266Z,18.77
2022-11-02T00:38:02.618Z,19.42
2022-11-02T00:40:29.490Z,18.77
2022-11-02T00:42:56.144Z,19.27
2022-11-02T00:45:23.436Z,17.67
2022-11-02T00:47:50.721Z,17.85
2022-11-02T00:50:18.948Z,18.88
2022-11-02T00:52:45.862Z,18.65
2022-11-02T00:55:14.993Z,19.67
2022-11-02T00:57:44.110Z,18.58
2022-11-02T01:00:12.059Z,19.08
2022-11-02T01:02:39.209Z,18.75
2022-11-02T01:05:07.510Z,19.70
2022-11-02T01:07:34.323Z,19.30
2022-11-02T01:10:00.904Z,18.52
2022-11-02T01:15:11.822Z,19.23
2022-11-02T01:17:38.764Z,18.13
2022-11-02T01:20:07.636Z,19.10
2022-11-02T01:22:34.469Z,17.95
2022-11-02T01:25:01.140Z,17.27
2022-11-02T01:27:27.954Z,16.83
2022-11-02T01:29:54.631Z,18.17
2022-11-02T01:32:21.325Z,17.55
2022-11-02T01:34:48.273Z,17.58
2022-11-02T01:37:15.524Z,17.80
2022-11-02T01:39:42.194Z,17.70
2022-11-02T01:42:24.636Z,17.90
2022-11-02T01:44:51.553Z,17.90
2022-11-02T01:47:21.319Z,17.08
2022-11-02T01:49:51.901Z,17.88
2022-11-02T01:52:37.915Z,17.63
2022-11-02T01:55:11.520Z,18.58
2022-11-02T01:57:41.148Z,17.25
2022-11-02T02:00:13.640Z,17.48
2022-11-02T02:02:50.375Z,16.80
2022-11-02T02:05:19.309Z,18.30
2022-11-02T02:07:47.486Z,18.30
2022-11-02T02:10:14.988Z,19.77
2022-11-02T02:12:43.186Z,17.85
2022-11-02T02:15:12.373Z,17.52
2022-11-02T02:18:07.240Z,18.48
2022-11-02T02:20:55.140Z,18.30
2022-11-02T02:24:00.663Z,18.73
2022-11-02T02:26:51.895Z,17.05
2022-11-02T02:29:41.899Z,17.52
2022-11-02T02:32:14.972Z,18.17
2022-11-02T02:34:50.667Z,17.80
2022-11-02T02:37:23.957Z,17.95
2022-11-02T02:40:04.731Z,17.42
2022-11-02T02:43:00.381Z,17.45
2022-11-02T02:45:34.741Z,18.45
2022-11-02T02:48:11.911Z,17.42
2022-11-02T02:51:07.643Z,18.30
2022-11-02T02:53:43.264Z,18.25
2022-11-02T02:56:11.440Z,17.60
2022-11-02T02:58:51.453Z,18.50
2022-11-02T03:01:18.785Z,18.08
2022-11-02T03:03:46.178Z,17.70
2022-11-02T03:06:18.116Z,17.30
2022-11-02T03:09:14.561Z,17.70
2022-11-02T03:12:17.164Z,17.25
2022-11-02T03:15:20.910Z,17.00
2022-11-02T03:17:51.286Z,17.23
2022-11-02T03:20:39.857Z,17.98
2022-11-02T03:23:23.068Z,17.05
2022-11-02T03:25:56.673Z,17.00
2022-11-02T03:28:48.056Z,16.63
2022-11-02T03:31:47.698Z,18.23
2022-11-02T03:34:39.218Z,17.65
2022-11-02T03:37:20.155Z,17.75
2022-11-02T03:39:58.963Z,17.55
2022-11-02T03:42:27.872Z,18.90
2022-11-02T03:45:01.193Z,17.02
2022-11-02T03:47:33.023Z,17.13
2022-11-02T03:50:06.393Z,17.98
2022-11-02T03:52:36.769Z,18.23
2022-11-02T03:55:06.298Z,16.92
2022-11-02T03:57:45.498Z,17.15
2022-11-02T04:00:20.230Z,18.60
2022-11-02T04:02:59.232Z,17.20
2022-11-02T04:05:32.821Z,17.65
2022-11-02T04:08:22.161Z,17.75
2022-11-02T04:11:11.755Z,18.00
2022-11-02T04:13:58.538Z,17.92
2022-11-02T04:16:28.276Z,18.35
2022-11-02T04:19:14.817Z,16.45
2022-11-02T04:22:02.875Z,17.42
2022-11-02T04:24:50.207Z,16.63
2022-11-02T04:27:20.940Z,17.35
2022-11-02T04:29:49.294Z,17.42
2022-11-02T04:32:36.520Z,16.73
2022-11-02T04:35:05.763Z,16.60
2022-11-02T04:38:00.172Z,16.85
2022-11-02T04:40:29.463Z,15.88
2022-11-02T04:42:57.179Z,16.83
2022-11-02T04:45:24.077Z,15.75
2022-11-02T04:47:51.901Z,15.23
2022-11-02T04:50:18.978Z,15.45
2022-11-02T04:52:46.184Z,14.68
2022-11-02T04:55:12.936Z,14.68
2022-11-02T04:57:45.344Z,14.23
2022-11-02T05:00:13.478Z,14.88
2022-11-02T05:02:40.716Z,15.30
2022-11-02T05:05:07.932Z,14.73
2022-11-02T05:07:35.016Z,15.55
2022-11-02T05:10:02.563Z,15.85
2022-11-02T05:12:30.660Z,17.15
2022-11-02T05:15:00.604Z,17.27
2022-11-02T05:17:27.755Z,16.90
2022-11-02T05:19:55.844Z,17.65
2022-11-02T05:22:22.609Z,18.52
2022-11-02T05:24:49.772Z,18.63
2022-11-02T05:27:16.648Z,17.40
2022-11-02T05:29:45.211Z,18.58
2022-11-02T05:32:11.930Z,18.67
2022-11-02T05:34:39.360Z,18.80
2022-11-02T05:37:07.739Z,18.95
2022-11-02T05:39:34.473Z,18.70
2022-11-02T05:42:01.673Z,19.85
2022-11-02T05:44:28.335Z,18.75
2022-11-02T05:46:55.108Z,18.55
2022-11-02T05:49:21.732Z,18.90
2022-11-02T05:51:49.105Z,18.85
2022-11-02T05:54:15.805Z,18.92
2022-11-02T05:56:42.452Z,18.98
2022-11-02T05:59:09.119Z,19.38
2022-11-02T06:01:35.753Z,19.10
2022-11-02T06:04:02.458Z,17.67
2022-11-02T06:06:29.062Z,19.50
2022-11-02T06:08:55.672Z,19.08
2022-11-02T06:11:22.352Z,18.67
2022-11-02T06:13:50.686Z,18.05
2022-11-02T06:16:22.582Z,19.40
2022-11-02T06:18:50.788Z,19.05
2022-11-02T06:21:17.787Z,19.20
2022-11-02T06:23:47.642Z,18.45
2022-11-02T06:26:14.852Z,19.15
2022-11-02T06:28:41.742Z,17.98
2022-11-02T06:31:09.640Z,18.98
2022-11-02T06:33:36.294Z,18.23
2022-11-02T06:36:03.013Z,18.02
2022-11-02T06:38:30.002Z,19.90
2022-11-02T06:40:58.709Z,19.58
2022-11-02T06:43:26.296Z,18.77
2022-11-02T06:45:57.400Z,19.75
2022-11-02T06:48:27.635Z,21.20
2022-11-02T06:50:58.239Z,21.30
2022-11-02T06:53:26.178Z,21.08
2022-11-02T06:55:54.185Z,20.27
2022-11-02T06:58:22.849Z,20.48
2022-11-02T07:00:49.681Z,20.00
2022-11-02T07:03:16.769Z,20.83
2022-11-02T07:05:49.478Z,20.77
2022-11-02T07:08:16.118Z,19.48
2022-11-02T07:10:42.727Z,19.73
2022-11-02T07:13:09.457Z,18.17
2022-11-02T07:15:36.232Z,20.15
2022-11-02T07:18:03.017Z,19.40
2022-11-02T07:20:32.537Z,19.70
2022-11-02T07:23:01.630Z,21.75
2022-11-02T07:25:31.002Z,21.70
2022-11-02T07:28:01.213Z,20.95
2022-11-02T07:30:29.774Z,21.63
2022-11-02T07:32:56.505Z,20.95
2022-11-02T07:35:23.199Z,20.73
2022-11-02T07:38:01.329Z,21.80
2022-11-02T07:40:29.532Z,20.55
2022-11-02T07:42:57.257Z,22.52
2022-11-02T07:45:49.897Z,21.40
2022-11-02T07:48:16.508Z,21.33
2022-11-02T07:50:43.109Z,21.23
2022-11-02T07:53:10.030Z,20.10
2022-11-02T07:55:36.629Z,21.77
2022-11-02T07:58:07.802Z,21.05
2022-11-02T08:00:38.003Z,22.90
2022-11-02T08:03:07.165Z,20.40
2022-11-02T08:05:35.830Z,20.85
2022-11-02T08:08:17.041Z,20.15
2022-11-02T08:10:45.152Z,20.88
2022-11-02T08:13:18.006Z,21.98
2022-11-02T08:15:45.160Z,21.40
2022-11-02T08:18:14.784Z,20.95
2022-11-02T08:20:41.471Z,20.95
2022-11-02T08:23:10.703Z,20.33
2022-11-02T08:25:38.126Z,20.95
2022-11-02T08:28:06.085Z,21.38
2022-11-02T08:30:33.615Z,20.98
2022-11-02T08:33:16.561Z,21.67
2022-11-02T08:35:44.752Z,20.58
2022-11-02T08:38:12.124Z,21.00
2022-11-02T08:40:39.071Z,21.10
2022-11-02T08:43:10.950Z,21.00
2022-11-02T08:46:13.307Z,20.33
2022-11-02T08:48:27.699Z,20.90
2022-11-02T08:50:55.596Z,20.40
2022-11-02T08:53:22.299Z,20.70
2022-11-02T08:55:49.029Z,20.55
2022-11-02T08:58:15.618Z,21.13
2022-11-02T09:00:42.606Z,21.30
2022-11-02T09:03:12.336Z,20.30
2022-11-02T09:05:42.234Z,20.08
2022-11-02T09:08:17.308Z,20.77
2022-11-02T09:10:44.682Z,21.60
2022-11-02T09:13:13.301Z,20.88
2022-11-02T09:15:40.985Z,20.40
2022-11-02T09:18:08.804Z,20.75
2022-11-02T09:20:36.013Z,20.77
2022-11-02T09:23:02.892Z,20.25
2022-11-02T09:25:29.464Z,20.95
2022-11-02T09:27:57.501Z,20.05
2022-11-02T09:30:25.904Z,20.55
2022-11-02T09:32:57.478Z,20.13
2022-11-02T09:35:25.138Z,20.48
2022-11-02T09:37:51.746Z,20.00
2022-11-02T09:40:39.525Z,20.17
2022-11-02T09:43:06.422Z,20.23
2022-11-02T09:46:13.498Z,20.15
2022-11-02T09:48:45.189Z,20.90
2022-11-02T09:51:24.545Z,20.60
2022-11-02T09:54:00.833Z,20.67
2022-11-02T09:56:29.646Z,19.52
2022-11-02T09:59:01.283Z,21.13
2022-11-02T10:01:37.318Z,21.15
2022-11-02T10:04:06.877Z,21.35
2022-11-02T10:06:36.553Z,21.10
2022-11-02T10:09:14.245Z,21.67
2022-11-02T10:11:54.027Z,21.15
2022-11-02T10:14:26.284Z,20.73
2022-11-02T10:17:12.317Z,20.50
2022-11-02T10:19:41.778Z,21.25
2022-11-02T10:22:13.003Z,20.92
2022-11-02T10:24:46.331Z,20.98
2022-11-02T10:27:15.520Z,20.70
2022-11-02T10:30:03.868Z,24.05
2022-11-02T10:32:36.306Z,22.08
2022-11-02T10:38:24.933Z,21.40
2022-11-02T10:41:23.457Z,22.65
2022-11-02T10:43:52.870Z,21.98
2022-11-02T10:46:31.911Z,21.70
2022-11-02T10:49:29.582Z,21.75
2022-11-02T10:51:56.249Z,21.42
2022-11-02T10:54:29.307Z,21.45
2022-11-02T10:57:00.297Z,21.20
2022-11-02T10:59:26.950Z,21.70
2022-11-02T11:01:56.618Z,20.60
2022-11-02T11:04:28.581Z,22.13
2022-11-02T11:06:56.798Z,21.77
2022-11-02T11:09:27.001Z,21.65
2022-11-02T11:12:00.650Z,21.23
2022-11-02T11:20:35.292Z,22.25
2022-11-02T11:28:24.960Z,20.38
2022-11-02T11:31:08.369Z,21.33
2022-11-02T11:33:55.519Z,21.52
2022-11-02T11:36:34.817Z,22.67
2022-11-02T11:39:07.761Z,21.33
2022-11-02T11:41:39.456Z,21.25
2022-11-02T11:44:12.569Z,21.60
2022-11-02T11:46:48.324Z,21.38
2022-11-02T11:49:47.992Z,21.52
2022-11-02T11:52:20.071Z,21.33
2022-11-02T11:54:57.828Z,21.40
2022-11-02T11:57:34.412Z,20.83
2022-11-02T12:00:04.890Z,22.33
2022-11-02T12:02:38.014Z,20.33
2022-11-02T12:05:07.841Z,20.27
2022-11-02T12:07:56.140Z,19.95
2022-11-02T12:11:00.242Z,23.35
2022-11-02T12:13:54.272Z,20.20
2022-11-02T12:16:42.867Z,20.88
2022-11-02T12:19:37.169Z,21.73
2022-11-02T12:22:38.055Z,21.60
2022-11-02T12:25:20.421Z,22.25
2022-11-02T12:27:53.676Z,20.88
2022-11-02T12:30:21.166Z,22.67
2022-11-02T12:33:24.189Z,22.48
2022-11-02T12:36:11.683Z,22.05
2022-11-02T12:38:49.731Z,22.38
2022-11-02T12:41:41.564Z,22.27
2022-11-02T12:44:14.072Z,22.35
2022-11-02T12:46:49.174Z,21.80
2022-11-02T12:49:41.906Z,22.75
2022-11-02T12:52:32.424Z,21.70
2022-11-02T12:55:02.810Z,22.45
2022-11-02T12:57:34.725Z,22.33
2022-11-02T13:00:06.870Z,22.48
2022-11-02T13:02:44.511Z,22.27
2022-11-02T13:05:23.271Z,22.80
2022-11-02T13:08:09.132Z,22.38
2022-11-02T13:10:57.261Z,21.60
2022-11-02T13:13:54.795Z,21.48
2022-11-02T13:16:33.922Z,21.83
2022-11-02T13:19:02.660Z,20.83
2022-11-02T13:21:41.160Z,21.90
2022-11-02T13:24:16.822Z,21.92
2022-11-02T13:26:45.243Z,21.75
2022-11-02T13:29:33.019Z,21.23
2022-11-02T13:32:21.529Z,20.50
2022-11-02T13:34:52.414Z,21.30
2022-11-02T13:37:30.657Z,20.92
2022-11-02T13:40:00.868Z,21.55
2022-11-02T13:42:40.347Z,21.75
2022-11-02T13:45:28.753Z,21.75
2022-11-02T13:48:00.969Z,21.30
2022-11-02T13:50:31.302Z,22.08
2022-11-02T13:53:03.008Z,22.52
2022-11-02T13:55:46.585Z,23.13
2022-11-02T13:58:31.845Z,22.10
2022-11-02T14:01:04.333Z,22.48
2022-11-02T14:03:48.595Z,21.73
2022-11-02T14:06:17.346Z,21.63
2022-11-02T14:08:49.902Z,21.00
2022-11-02T14:11:16.520Z,21.83
2022-11-02T14:14:06.143Z,22.63
2022-11-02T14:16:50.712Z,22.70
2022-11-02T14:19:43.404Z,21.80
2022-11-02T14:22:15.310Z,23.52
2022-11-02T14:24:41.904Z,27.48
2022-11-02T14:27:18.916Z,25.13
2022-11-02T14:29:45.477Z,23.15
2022-11-02T14:32:21.084Z,22.23
2022-11-02T14:35:13.094Z,22.60
2022-11-02T14:38:10.949Z,22.90
2022-11-02T14:41:03.814Z,23.40
2022-11-02T14:43:51.515Z,23.35
2022-11-02T14:46:33.452Z,23.45
2022-11-02T14:49:01.591Z,24.50
2022-11-02T14:51:33.238Z,22.55
2022-11-02T14:54:14.687Z,22.17
2022-11-02T14:57:04.926Z,21.25
2022-11-02T14:59:44.575Z,22.55
2022-11-02T15:02:38.663Z,21.90
2022-11-02T15:05:19.534Z,21.67
2022-11-02T15:07:54.546Z,23.10
2022-11-02T15:12:48.717Z,22.30
2022-11-02T15:15:36.346Z,22.73
2022-11-02T15:18:30.742Z,22.58
2022-11-02T15:21:17.616Z,21.95
2022-11-02T15:24:11.054Z,22.05
2022-11-02T15:26:46.997Z,22.98
2022-11-02T15:29:36.790Z,21.88
2022-11-02T15:32:06.260Z,22.00
2022-11-02T15:34:41.481Z,21.35
2022-11-02T15:37:12.603Z,22.70
2022-11-02T15:39:39.248Z,36.30
2022-11-02T15:42:20.258Z,34.25
2022-11-02T15:44:54.658Z,68.97
2022-11-02T15:47:42.617Z,40.70
2022-11-02T15:50:36.968Z,27.70
2022-11-02T15:53:28.373Z,25.98
2022-11-02T15:56:20.044Z,23.10
2022-11-02T15:59:11.524Z,22.10
2022-11-02T16:01:40.134Z,20.83
2022-11-02T16:04:08.701Z,23.70
2022-11-02T16:06:39.266Z,21.35
2022-11-02T16:09:35.102Z,25.15
2022-11-02T16:14:40.524Z,26.63
2022-11-02T16:17:22.378Z,24.17
2022-11-02T16:19:49.453Z,27.65
2022-11-02T16:22:26.357Z,28.98
2022-11-02T16:24:54.404Z,26.25
2022-11-02T16:27:22.269Z,26.30
2022-11-02T16:29:50.613Z,27.33
2022-11-02T16:32:17.412Z,31.75
2022-11-02T16:34:44.933Z,28.02
2022-11-02T16:37:14.696Z,27.85
2022-11-02T16:39:46.475Z,28.63
2022-11-02T16:42:21.910Z,40.28
2022-11-02T16:44:58.154Z,37.30
2022-11-02T16:47:40.605Z,30.23
2022-11-02T16:50:20.914Z,29.00
2022-11-02T16:52:55.071Z,26.70
2022-11-02T16:55:37.235Z,25.30
2022-11-02T16:58:06.303Z,27.08
2022-11-02T17:00:34.049Z,26.10
2022-11-02T17:03:08.422Z,24.63
2022-11-02T17:05:35.646Z,26.60
2022-11-02T17:08:11.682Z,35.35
2022-11-02T17:10:39.294Z,41.22
2022-11-02T17:13:15.922Z,34.45
2022-11-02T17:15:51.624Z,41.45
2022-11-02T17:18:21.065Z,31.60
2022-11-02T17:20:48.993Z,26.52
2022-11-02T17:23:34.043Z,25.38
2022-11-02T17:26:24.701Z,35.15
2022-11-02T17:29:26.715Z,26.77
2022-11-02T17:31:57.069Z,35.25
2022-11-02T17:34:23.914Z,26.05
2022-11-02T17:36:51.789Z,22.92
2022-11-02T17:39:20.340Z,22.80
2022-11-02T17:42:11.571Z,23.50
2022-11-02T17:44:38.656Z,24.73
2022-11-02T17:47:12.996Z,23.70
2022-11-02T17:49:39.655Z,41.30
2022-11-02T17:52:06.493Z,41.13
2022-11-02T17:54:33.200Z,28.77
2022-11-02T17:57:01.680Z,25.52
2022-11-02T17:59:28.858Z,29.38
2022-11-02T18:01:55.730Z,27.92
2022-11-02T18:04:22.453Z,52.03
2022-11-02T18:06:49.161Z,35.85
2022-11-02T18:09:18.908Z,30.83
2022-11-02T18:11:46.190Z,31.35
2022-11-02T18:14:16.674Z,29.67
2022-11-02T18:16:44.627Z,34.92
2022-11-02T18:19:11.797Z,29.65
2022-11-02T18:21:38.467Z,31.10
2022-11-02T18:24:05.410Z,39.80
2022-11-02T18:26:32.088Z,39.33
2022-11-02T18:28:58.745Z,34.10
2022-11-02T18:31:25.353Z,27.02
2022-11-02T18:33:52.982Z,30.27
2022-11-02T18:36:19.619Z,41.15
2022-11-02T18:38:46.350Z,33.38
2022-11-02T18:41:29.479Z,47.20
2022-11-02T18:44:05.531Z,25.00
2022-11-02T18:46:33.776Z,24.65
2022-11-02T18:49:00.474Z,23.75
2022-11-02T18:51:27.192Z,25.90
2022-11-02T18:54:02.441Z,22.92
2022-11-02T18:56:30.155Z,25.40
2022-11-02T18:58:57.441Z,22.65
2022-11-02T19:01:25.195Z,26.65
2022-11-02T19:03:57.108Z,29.05
2022-11-02T19:06:43.254Z,30.35
2022-11-02T19:09:18.077Z,32.45
2022-11-02T19:12:05.141Z,27.80
2022-11-02T19:14:36.078Z,25.48
2022-11-02T19:17:03.469Z,26.30
2022-11-02T19:19:30.935Z,26.30
2022-11-02T19:21:57.616Z,25.00
2022-11-02T19:24:24.444Z,28.25
2022-11-02T19:26:51.428Z,22.42
2022-11-02T19:29:18.933Z,27.48
2022-11-02T19:31:46.534Z,21.63
2022-11-02T19:34:13.529Z,19.83
2022-11-02T19:36:40.621Z,19.77
2022-11-02T19:39:09.297Z,23.83
2022-11-02T19:41:38.435Z,37.35
2022-11-02T19:44:06.137Z,64.38
2022-11-02T19:46:33.211Z,29.50
2022-11-02T19:48:59.944Z,23.42
2022-11-02T19:51:28.999Z,23.67
2022-11-02T19:53:58.359Z,24.50
2022-11-02T19:56:27.465Z,24.77
2022-11-02T19:58:55.342Z,25.30
2022-11-02T20:01:24.586Z,25.70
2022-11-02T20:03:52.327Z,25.33
2022-11-02T20:06:27.796Z,26.67
2022-11-02T20:08:56.733Z,37.13
2022-11-02T20:11:25.205Z,31.00
2022-11-02T20:13:52.114Z,27.55
2022-11-02T20:16:20.412Z,21.08
2022-11-02T20:18:48.648Z,19.58
2022-11-02T20:21:26.881Z,22.33
2022-11-02T20:23:57.611Z,22.77
2022-11-02T20:26:27.202Z,20.08
2022-11-02T20:28:54.078Z,20.35
2022-11-02T20:31:26.636Z,21.60
2022-11-02T20:33:53.721Z,25.63
2022-11-02T20:36:20.566Z,26.63
2022-11-02T20:38:48.985Z,27.50
2022-11-02T20:41:18.882Z,25.50
2022-11-02T20:43:47.936Z,21.15
2022-11-02T20:46:36.393Z,18.05
2022-11-02T20:49:13.936Z,19.42
2022-11-02T20:51:52.972Z,20.08
2022-11-02T20:54:22.798Z,19.08
2022-11-02T20:56:50.145Z,19.27
2022-11-02T20:59:17.354Z,22.17
2022-11-02T21:01:44.525Z,18.45
2022-11-02T21:04:16.855Z,15.55
2022-11-02T21:06:47.219Z,18.33
2022-11-02T21:09:14.079Z,16.30
2022-11-02T21:11:59.234Z,17.40
2022-11-02T21:14:25.874Z,16.75
2022-11-02T21:16:52.483Z,17.50
2022-11-02T21:19:19.254Z,16.75
2022-11-02T21:21:46.124Z,17.08
2022-11-02T21:24:12.753Z,34.72
2022-11-02T21:26:39.570Z,31.27
2022-11-02T21:29:06.199Z,25.15
2022-11-02T21:31:32.892Z,23.00
2022-11-02T21:33:59.567Z,16.05
2022-11-02T21:36:26.153Z,22.65
2022-11-02T21:38:52.846Z,16.17
2022-11-02T21:41:21.962Z,15.30
2022-11-02T21:43:51.744Z,16.15
2022-11-02T21:46:19.577Z,15.32
2022-11-02T21:48:46.188Z,14.43
2022-11-02T21:51:15.200Z,16.38
2022-11-02T21:53:43.174Z,23.27
2022-11-02T21:56:15.256Z,17.75
2022-11-02T21:58:45.805Z,25.02
2022-11-02T22:01:39.668Z,24.40
2022-11-02T22:04:07.665Z,20.60
2022-11-02T22:06:34.894Z,21.90
2022-11-02T22:09:02.831Z,20.42
2022-11-02T22:11:29.736Z,20.48
2022-11-02T22:13:58.474Z,21.77
2022-11-02T22:16:31.693Z,24.13
2022-11-02T22:19:00.352Z,21.08
2022-11-02T22:21:30.076Z,17.70
2022-11-02T22:23:56.697Z,23.38
2022-11-02T22:26:25.871Z,16.27
2022-11-02T22:28:53.287Z,17.58
2022-11-02T22:31:23.189Z,22.65
2022-11-02T22:33:51.875Z,17.40
2022-11-02T22:36:24.924Z,17.48
2022-11-02T22:38:55.848Z,16.83
2022-11-02T22:41:27.732Z,24.33
2022-11-02T22:43:57.752Z,16.50
2022-11-02T22:46:26.637Z,21.60
2022-11-02T22:48:55.401Z,18.73
2022-11-02T22:51:24.085Z,16.52
2022-11-02T22:53:50.758Z,16.17
2022-11-02T22:56:20.176Z,18.95
2022-11-02T22:58:48.051Z,21.80
2022-11-02T23:01:23.028Z,19.25
2022-11-02T23:03:50.123Z,19.45
2022-11-02T23:06:18.565Z,16.95
2022-11-02T23:08:46.153Z,17.13
2022-11-02T23:11:21.782Z,18.25
2022-11-02T23:13:54.388Z,17.15
2022-11-02T23:16:26.242Z,18.27
2022-11-02T23:19:29.656Z,18.38
2022-11-02T23:22:30.057Z,16.88
2022-11-02T23:25:17.219Z,17.80
2022-11-02T23:28:15.403Z,17.63
2022-11-02T23:31:18.154Z,15.73
2022-11-02T23:33:44.764Z,18.15
2022-11-02T23:36:12.132Z,17.10
2022-11-02T23:38:58.222Z,18.25
2022-11-02T23:41:25.643Z,18.13
2022-11-02T23:44:11.111Z,18.77
2022-11-02T23:46:39.284Z,18.17
2022-11-02T23:49:05.965Z,17.90
2022-11-02T23:51:51.220Z,18.75
2022-11-02T23:54:36.592Z,20.25
2022-11-02T23:57:03.470Z,19.75
2022-11-02T23:59:30.112Z,19.52
